Time;durP1;ratioP1;P1;durP2;ratioP2;P2;SDS_P1;SDS_P2;PMS_P1;PMS_P2;Temp;Humidity;BMP_temperature;BMP_pressure;BME280_temperature;BME280_humidity;BME280_pressure;Samples;Min_cycle;Max_cycle;Signal;HPM_P1;HPM_P2
2022/04/06 00:00:11;;;;;;;0.70;0.60;;;11.80;99.90;;;;;;5035072;28;20199;-70
2022/04/06 00:02:40;;;;;;;0.70;0.50;;;11.80;99.90;;;;;;5035077;28;20259;-71
2022/04/06 00:05:10;;;;;;;1.23;1.07;;;11.70;99.90;;;;;;5034643;28;20425;-71
2022/04/06 00:07:39;;;;;;;1.00;0.80;;;11.70;99.90;;;;;;5034956;28;20964;-71
2022/04/06 00:10:07;;;;;;;0.70;0.50;;;11.70;99.90;;;;;;5035009;28;20424;-72
2022/04/06 00:12:34;;;;;;;3.13;0.77;;;11.70;99.90;;;;;;5035966;28;20398;-71
2022/04/06 00:15:00;;;;;;;0.70;0.50;;;11.70;99.90;;;;;;5035556;28;20775;-71
2022/04/06 00:17:26;;;;;;;0.70;0.50;;;11.70;99.90;;;;;;5035979;28;20429;-70
2022/04/06 00:19:51;;;;;;;1.33;0.90;;;11.70;99.90;;;;;;5035367;28;20168;-72
2022/04/06 00:22:17;;;;;;;0.70;0.50;;;11.70;99.90;;;;;;5035798;28;20490;-72
2022/04/06 00:24:42;;;;;;;1.13;1.03;;;11.70;99.90;;;;;;5033101;28;20171;-70
2022/04/06 00:27:08;;;;;;;0.70;0.50;;;11.70;99.90;;;;;;5034463;28;20245;-71
2022/04/06 00:29:33;;;;;;;1.30;1.17;;;11.70;99.90;;;;;;5034807;28;20164;-73
2022/04/06 00:31:59;;;;;;;0.70;0.50;;;11.70;99.90;;;;;;5035534;28;20187;-72
2022/04/06 00:35:28;;;;;;;0.70;0.60;;;11.70;99.90;;;;;;5034826;28;20172;-72
2022/04/06 00:37:10;;;;;;;0.80;0.50;;;11.60;99.90;;;;;;5034794;28;20258;-71
2022/04/06 00:39:35;;;;;;;1.63;1.40;;;11.60;99.90;;;;;;5034959;28;20446;-71
2022/04/06 00:42:01;;;;;;;0.80;0.70;;;11.60;99.90;;;;;;5035477;28;20164;-71
2022/04/06 00:44:28;;;;;;;0.80;0.70;;;11.60;99.90;;;;;;5034970;28;20167;-71
2022/04/06 00:46:54;;;;;;;0.70;0.50;;;11.60;99.90;;;;;;5033389;28;20204;-72
2022/04/06 00:49:20;;;;;;;0.70;0.60;;;11.60;99.90;;;;;;5035050;28;20399;-71
2022/04/06 00:51:47;;;;;;;1.47;0.70;;;11.60;99.90;;;;;;5034735;28;20764;-72
2022/04/06 00:54:21;;;;;;;0.70;0.50;;;11.50;99.90;;;;;;5034686;28;20250;-72
2022/04/06 00:56:47;;;;;;;0.70;0.60;;;11.50;99.90;;;;;;5033894;28;20438;-72
2022/04/06 00:59:15;;;;;;;0.70;0.60;;;11.50;99.90;;;;;;5033978;28;20417;-72
2022/04/06 01:01:41;;;;;;;0.80;0.60;;;11.50;99.90;;;;;;5034042;28;20425;-71
2022/04/06 01:04:07;;;;;;;0.70;0.60;;;11.50;99.90;;;;;;5033656;28;20406;-72
2022/04/06 01:06:32;;;;;;;0.70;0.60;;;11.50;99.90;;;;;;5033821;28;20206;-71
2022/04/06 01:08:58;;;;;;;1.17;0.77;;;11.50;99.90;;;;;;5034054;28;20167;-70
2022/04/06 01:11:24;;;;;;;0.70;0.50;;;11.50;99.90;;;;;;5033922;28;20178;-71
2022/04/06 01:13:50;;;;;;;0.80;0.70;;;11.50;99.90;;;;;;5032630;28;20606;-71
2022/04/06 01:16:16;;;;;;;1.80;0.73;;;11.50;99.90;;;;;;5033450;28;20203;-71
2022/04/06 01:18:41;;;;;;;0.80;0.70;;;11.40;99.90;;;;;;5032443;28;20763;-71
2022/04/06 01:21:08;;;;;;;1.63;1.43;;;11.40;99.90;;;;;;5032798;28;20629;-71
2022/04/06 01:23:33;;;;;;;2.27;1.73;;;11.40;99.90;;;;;;5033791;28;20175;-72
2022/04/06 01:25:59;;;;;;;0.80;0.80;;;11.40;99.90;;;;;;5033164;28;20446;-71
2022/04/06 01:28:26;;;;;;;1.23;0.60;;;11.40;99.90;;;;;;5034625;28;20171;-71
2022/04/06 01:30:51;;;;;;;0.70;0.50;;;11.40;99.90;;;;;;5033565;28;20176;-71
2022/04/06 01:33:17;;;;;;;0.70;0.50;;;11.40;99.90;;;;;;5033367;28;20514;-71
2022/04/06 01:35:43;;;;;;;0.70;0.50;;;11.40;99.90;;;;;;5032872;28;20203;-71
2022/04/06 01:38:09;;;;;;;0.70;0.50;;;11.40;99.90;;;;;;5034625;28;20172;-72
2022/04/06 01:40:35;;;;;;;0.70;0.60;;;11.40;99.90;;;;;;5034644;28;20183;-72
2022/04/06 01:43:01;;;;;;;0.73;0.63;;;11.40;99.90;;;;;;5034114;28;20410;-72
2022/04/06 01:45:26;;;;;;;0.70;0.50;;;11.40;99.90;;;;;;5032750;28;20504;-72
2022/04/06 01:47:52;;;;;;;0.70;0.50;;;11.40;99.90;;;;;;5033210;28;20659;-73
2022/04/06 01:53:03;;;;;;;0.70;0.50;;;11.40;99.90;;;;;;5034365;28;20258;-71
2022/04/06 01:55:29;;;;;;;1.10;0.73;;;11.30;99.90;;;;;;5032739;28;20437;-70
2022/04/06 01:57:55;;;;;;;0.90;0.90;;;11.30;99.90;;;;;;5033902;28;20442;-72
2022/04/06 02:00:21;;;;;;;0.70;0.60;;;11.30;99.90;;;;;;5033541;28;20926;-72
2022/04/06 02:02:51;;;;;;;1.20;0.70;;;11.30;99.90;;;;;;5032764;28;20406;-71
2022/04/06 02:05:18;;;;;;;0.70;0.60;;;11.30;99.90;;;;;;5032468;28;20195;-73
2022/04/06 02:07:46;;;;;;;0.70;0.50;;;11.30;99.90;;;;;;5032816;28;20406;-70
2022/04/06 02:10:13;;;;;;;0.80;0.67;;;11.30;99.90;;;;;;5032894;28;20477;-70
2022/04/06 02:12:39;;;;;;;2.70;0.93;;;11.20;99.90;;;;;;5032608;28;20434;-71
2022/04/06 02:15:08;;;;;;;1.83;1.33;;;11.20;99.90;;;;;;5032449;28;20426;-71
2022/04/06 02:17:34;;;;;;;0.87;0.83;;;11.20;99.90;;;;;;5032008;28;20410;-71
2022/04/06 02:19:59;;;;;;;0.70;0.50;;;11.20;99.90;;;;;;5033117;28;20409;-71
2022/04/06 02:22:25;;;;;;;0.70;0.50;;;11.20;99.90;;;;;;5032997;28;20176;-72
2022/04/06 02:24:51;;;;;;;2.50;2.30;;;11.20;99.90;;;;;;5033106;28;20184;-71
2022/04/06 02:27:17;;;;;;;0.70;0.50;;;11.20;99.90;;;;;;5033760;28;20449;-70
2022/04/06 02:29:42;;;;;;;2.23;1.00;;;11.20;99.90;;;;;;5033018;28;20170;-71
2022/04/06 02:32:09;;;;;;;0.70;0.60;;;11.20;99.90;;;;;;5032998;28;20160;-71
2022/04/06 02:34:35;;;;;;;0.70;0.50;;;11.20;99.90;;;;;;5033726;28;20177;-71
2022/04/06 02:37:01;;;;;;;0.70;0.50;;;11.20;99.90;;;;;;5032746;28;20451;-71
2022/04/06 02:39:26;;;;;;;0.70;0.50;;;11.20;99.90;;;;;;5033012;28;20414;-70
2022/04/06 02:41:52;;;;;;;0.70;0.50;;;11.10;99.90;;;;;;5033816;28;20171;-71
2022/04/06 02:44:17;;;;;;;1.33;0.90;;;11.20;99.90;;;;;;5031938;28;20550;-70
2022/04/06 02:46:44;;;;;;;0.70;0.60;;;11.10;99.90;;;;;;5032132;28;20295;-71
2022/04/06 02:49:09;;;;;;;1.40;0.83;;;11.10;99.90;;;;;;5033372;28;20202;-71
2022/04/06 02:51:35;;;;;;;1.17;1.07;;;11.10;99.90;;;;;;5033117;28;20406;-72
2022/04/06 02:54:01;;;;;;;0.70;0.60;;;11.10;99.90;;;;;;5033203;28;20191;-71
2022/04/06 02:56:27;;;;;;;0.70;0.53;;;11.10;99.90;;;;;;5031703;28;20195;-70
2022/04/06 02:58:53;;;;;;;0.80;0.70;;;11.10;99.90;;;;;;5031931;28;20198;-70
2022/04/06 03:01:19;;;;;;;0.80;0.60;;;11.10;99.90;;;;;;5030744;28;20425;-72
2022/04/06 03:03:45;;;;;;;0.70;0.50;;;11.10;99.90;;;;;;5031799;28;20410;-70
2022/04/06 03:06:10;;;;;;;0.70;0.50;;;11.10;99.90;;;;;;5032342;28;20462;-71
2022/04/06 03:08:36;;;;;;;0.70;0.50;;;11.10;99.90;;;;;;5032993;28;20168;-70
2022/04/06 03:11:02;;;;;;;0.70;0.50;;;11.10;99.90;;;;;;5031970;28;20660;-71
2022/04/06 03:13:27;;;;;;;1.00;0.73;;;11.10;99.90;;;;;;5033107;28;20164;-73
2022/04/06 03:15:53;;;;;;;1.03;0.70;;;11.10;99.90;;;;;;5030399;28;20240;-71
2022/04/06 03:18:18;;;;;;;0.90;0.90;;;11.10;99.90;;;;;;5030535;28;20190;-70
2022/04/06 03:20:44;;;;;;;0.70;0.50;;;11.10;99.90;;;;;;5031871;28;20178;-70
2022/04/06 03:23:09;;;;;;;0.80;0.60;;;11.10;99.90;;;;;;5032347;28;20312;-72
2022/04/06 03:25:35;;;;;;;0.70;0.50;;;11.10;99.90;;;;;;5032677;28;20278;-71
2022/04/06 03:28:01;;;;;;;0.77;0.57;;;11.10;99.90;;;;;;5033498;28;20174;-71
2022/04/06 03:30:26;;;;;;;1.67;0.60;;;11.00;99.90;;;;;;5033047;28;20243;-71
2022/04/06 03:32:52;;;;;;;0.70;0.50;;;11.10;99.90;;;;;;5031830;28;20533;-69
2022/04/06 03:35:17;;;;;;;0.70;0.50;;;11.10;99.90;;;;;;5031314;28;20188;-70
2022/04/06 03:37:43;;;;;;;0.70;0.50;;;11.00;99.90;;;;;;5031667;28;20171;-71
2022/04/06 03:40:10;;;;;;;0.70;0.50;;;11.10;99.90;;;;;;5031679;28;20175;-71
2022/04/06 03:42:36;;;;;;;1.00;0.73;;;11.00;99.90;;;;;;5031682;28;20167;-71
2022/04/06 03:45:03;;;;;;;0.73;0.57;;;11.00;99.90;;;;;;5030694;28;20456;-72
2022/04/06 03:47:30;;;;;;;0.70;0.60;;;11.00;99.90;;;;;;5031592;28;20636;-70
2022/04/06 03:49:55;;;;;;;1.20;0.70;;;11.10;99.90;;;;;;5031571;28;20760;-71
2022/04/06 03:52:21;;;;;;;1.17;1.07;;;11.10;99.90;;;;;;5031604;28;20403;-71
2022/04/06 03:54:46;;;;;;;0.80;0.60;;;11.00;99.90;;;;;;5031093;28;20194;-71
2022/04/06 03:57:13;;;;;;;0.80;0.57;;;11.00;99.90;;;;;;5031616;28;20197;-72
2022/04/06 03:59:39;;;;;;;3.83;0.80;;;11.10;99.90;;;;;;5034780;28;20199;-70
2022/04/06 04:02:04;;;;;;;0.70;0.60;;;11.00;99.90;;;;;;5034104;28;20418;-71
2022/04/06 04:04:30;;;;;;;1.67;0.80;;;11.00;99.90;;;;;;5034987;28;20175;-70
2022/04/06 04:06:56;;;;;;;0.70;0.60;;;11.00;99.90;;;;;;5035080;28;20560;-71
2022/04/06 04:09:21;;;;;;;1.37;1.27;;;11.00;99.90;;;;;;5035084;28;20164;-72
2022/04/06 04:11:47;;;;;;;0.80;0.60;;;11.00;99.90;;;;;;5035120;28;20174;-71
2022/04/06 04:14:12;;;;;;;0.80;0.60;;;11.00;99.90;;;;;;5033750;28;20260;-71
2022/04/06 04:16:38;;;;;;;1.20;1.10;;;11.10;99.90;;;;;;5034749;28;20237;-71
2022/04/06 04:19:03;;;;;;;1.07;0.97;;;11.00;99.90;;;;;;5033760;28;20206;-71
2022/04/06 04:21:32;;;;;;;0.70;0.50;;;11.00;99.90;;;;;;5034970;28;20159;-71
2022/04/06 04:24:02;;;;;;;0.70;0.50;;;11.00;99.90;;;;;;5034783;28;20172;-72
2022/04/06 04:26:28;;;;;;;1.13;0.97;;;11.00;99.90;;;;;;5034556;28;20458;-72
2022/04/06 04:28:54;;;;;;;1.03;0.93;;;11.00;99.90;;;;;;5034723;28;20413;-71
2022/04/06 04:31:20;;;;;;;0.70;0.50;;;11.00;99.90;;;;;;5033532;28;20847;-72
2022/04/06 04:33:46;;;;;;;0.70;0.50;;;11.00;99.90;;;;;;5034666;28;20437;-73
2022/04/06 04:36:12;;;;;;;0.80;0.60;;;11.00;99.90;;;;;;5034279;28;20191;-71
2022/04/06 04:38:37;;;;;;;0.70;0.60;;;11.00;99.90;;;;;;5034565;28;20452;-71
2022/04/06 04:41:06;;;;;;;0.80;0.70;;;11.00;99.90;;;;;;5033323;28;20184;-71
2022/04/06 04:43:32;;;;;;;0.70;0.53;;;11.00;99.90;;;;;;5034445;28;20175;-71
2022/04/06 04:45:58;;;;;;;0.70;0.57;;;11.00;99.90;;;;;;5034061;28;20462;-71
2022/04/06 04:48:23;;;;;;;3.40;3.20;;;11.00;99.90;;;;;;5034650;28;20413;-71
2022/04/06 04:50:49;;;;;;;0.70;0.60;;;11.00;99.90;;;;;;5034354;28;20776;-71
2022/04/06 04:53:15;;;;;;;1.83;0.77;;;11.00;99.90;;;;;;5034185;28;20653;-71
2022/04/06 04:55:41;;;;;;;0.70;0.50;;;10.90;99.90;;;;;;5033956;28;20191;-71
2022/04/06 04:58:07;;;;;;;0.83;0.80;;;10.90;99.90;;;;;;5034202;28;20583;-73
2022/04/06 05:00:32;;;;;;;1.00;0.60;;;10.90;99.90;;;;;;5034283;28;20419;-73
2022/04/06 05:02:58;;;;;;;1.10;0.80;;;10.90;99.90;;;;;;5034085;28;20176;-72
2022/04/06 05:05:24;;;;;;;1.13;1.00;;;10.90;99.90;;;;;;5033663;28;20204;-72
2022/04/06 05:07:50;;;;;;;2.40;2.20;;;10.90;99.90;;;;;;5034002;28;20221;-72
2022/04/06 05:10:15;;;;;;;1.50;1.27;;;10.90;99.90;;;;;;5032335;28;20172;-69
2022/04/06 05:12:41;;;;;;;0.87;0.60;;;11.00;99.90;;;;;;5033899;28;20394;-73
2022/04/06 05:15:07;;;;;;;1.00;0.83;;;11.00;99.90;;;;;;5033676;28;20589;-72
2022/04/06 05:17:36;;;;;;;0.70;0.50;;;11.00;99.90;;;;;;5033916;28;20255;-72
2022/04/06 05:20:02;;;;;;;0.80;0.60;;;10.90;99.90;;;;;;5034070;28;20536;-72
2022/04/06 05:22:27;;;;;;;0.70;0.50;;;11.00;99.90;;;;;;5033742;28;20888;-71
2022/04/06 05:24:53;;;;;;;0.90;0.67;;;11.00;99.90;;;;;;5033475;28;20414;-72
2022/04/06 05:27:19;;;;;;;4.67;1.33;;;11.00;99.90;;;;;;5032388;28;20203;-72
2022/04/06 05:29:46;;;;;;;0.70;0.60;;;11.00;99.90;;;;;;5033633;28;20406;-71
2022/04/06 05:32:12;;;;;;;0.70;0.50;;;11.00;99.90;;;;;;5033643;28;20421;-71
2022/04/06 05:34:37;;;;;;;0.70;0.50;;;11.00;99.90;;;;;;5033226;28;20402;-71
2022/04/06 05:37:03;;;;;;;0.70;0.50;;;11.00;99.90;;;;;;5033538;28;20206;-72
2022/04/06 05:39:29;;;;;;;1.87;0.57;;;11.00;99.90;;;;;;5033545;28;20759;-71
2022/04/06 05:41:54;;;;;;;1.00;0.60;;;11.10;99.90;;;;;;5033424;28;20430;-71
2022/04/06 05:44:20;;;;;;;0.70;0.50;;;11.10;99.90;;;;;;5033375;28;20183;-71
2022/04/06 05:46:46;;;;;;;0.70;0.50;;;11.10;99.90;;;;;;5032942;28;20245;-71
2022/04/06 05:49:11;;;;;;;1.00;0.60;;;11.10;99.90;;;;;;5033389;28;20164;-72
2022/04/06 05:51:37;;;;;;;0.80;0.70;;;11.20;99.90;;;;;;5033266;28;20164;-72
2022/04/06 05:54:03;;;;;;;0.70;0.50;;;11.20;99.90;;;;;;5033058;28;20526;-71
2022/04/06 05:56:30;;;;;;;0.70;0.60;;;11.20;99.90;;;;;;5032928;28;20193;-72
2022/04/06 05:58:55;;;;;;;0.70;0.50;;;11.20;99.90;;;;;;5033153;28;20410;-71
2022/04/06 06:01:21;;;;;;;0.70;0.60;;;11.20;99.90;;;;;;5033192;28;20837;-72
2022/04/06 06:03:46;;;;;;;3.13;1.90;;;11.20;99.90;;;;;;5031571;28;20539;-71
2022/04/06 06:06:12;;;;;;;0.80;0.70;;;11.20;99.90;;;;;;5032543;28;20281;-71
2022/04/06 06:08:38;;;;;;;0.80;0.70;;;11.30;99.90;;;;;;5032942;28;20833;-72
2022/04/06 06:11:04;;;;;;;0.80;0.60;;;11.30;99.90;;;;;;5032856;28;20585;-71
2022/04/06 06:13:30;;;;;;;0.70;0.50;;;11.30;99.90;;;;;;5032836;28;20536;-71
2022/04/06 06:15:56;;;;;;;0.70;0.50;;;11.30;99.90;;;;;;5031181;28;20442;-72
2022/04/06 06:18:22;;;;;;;0.70;0.50;;;11.40;99.90;;;;;;5032714;28;20402;-72
2022/04/06 06:20:48;;;;;;;0.70;0.50;;;11.40;99.90;;;;;;5032624;28;20174;-71
2022/04/06 06:23:13;;;;;;;0.80;0.70;;;11.40;99.90;;;;;;5032011;28;20493;-71
2022/04/06 06:25:39;;;;;;;0.83;0.83;;;11.40;99.90;;;;;;5032361;28;20200;-73
2022/04/06 06:28:05;;;;;;;0.70;0.50;;;11.50;99.90;;;;;;5032542;28;20591;-72
2022/04/06 06:30:31;;;;;;;0.80;0.60;;;11.50;99.90;;;;;;5032601;28;20198;-71
2022/04/06 06:32:56;;;;;;;1.53;0.80;;;11.50;99.90;;;;;;5032525;28;20434;-72
2022/04/06 06:35:24;;;;;;;1.47;0.60;;;11.50;99.90;;;;;;5032083;28;20196;-72
2022/04/06 06:37:51;;;;;;;0.70;0.50;;;11.60;99.90;;;;;;5031211;28;20178;-72
2022/04/06 06:40:18;;;;;;;0.80;0.77;;;11.60;99.90;;;;;;5032353;28;20414;-71
2022/04/06 06:42:44;;;;;;;0.70;0.50;;;11.60;99.90;;;;;;5032342;28;20927;-72
2022/04/06 06:45:11;;;;;;;0.70;0.50;;;11.60;99.90;;;;;;5031866;28;20422;-71
2022/04/06 06:47:36;;;;;;;0.70;0.50;;;11.60;99.90;;;;;;5032217;28;20170;-72
2022/04/06 06:50:03;;;;;;;0.70;0.50;;;11.60;99.90;;;;;;5032120;28;20391;-72
2022/04/06 06:52:29;;;;;;;2.40;0.83;;;11.60;99.90;;;;;;5032110;28;20206;-71
2022/04/06 06:54:54;;;;;;;0.70;0.50;;;11.60;99.90;;;;;;5031511;28;20453;-72
2022/04/06 06:57:20;;;;;;;0.87;0.87;;;11.60;99.90;;;;;;5032126;28;20604;-72
2022/04/06 06:59:45;;;;;;;0.90;0.80;;;11.70;99.90;;;;;;5031999;28;20191;-71
2022/04/06 07:02:11;;;;;;;0.80;0.60;;;11.70;99.90;;;;;;5031964;28;20168;-72
2022/04/06 07:04:37;;;;;;;0.70;0.50;;;11.80;99.90;;;;;;5032121;28;20172;-72
2022/04/06 07:07:02;;;;;;;1.17;0.80;;;11.80;99.90;;;;;;5032525;28;20210;-72
2022/04/06 07:09:28;;;;;;;0.70;0.50;;;11.90;99.90;;;;;;5033220;28;20163;-72
2022/04/06 07:11:54;;;;;;;0.70;0.50;;;12.00;99.90;;;;;;5033041;28;20775;-73
2022/04/06 07:14:20;;;;;;;1.57;0.90;;;12.10;99.90;;;;;;5033182;28;20167;-73
2022/04/06 07:16:46;;;;;;;3.70;0.73;;;12.20;99.90;;;;;;5033347;28;20538;-73
2022/04/06 07:19:11;;;;;;;0.70;0.60;;;12.30;99.90;;;;;;5032928;28;20414;-73
2022/04/06 07:21:37;;;;;;;0.70;0.50;;;12.40;99.90;;;;;;5033252;28;20403;-73
2022/04/06 07:24:03;;;;;;;1.10;1.00;;;12.40;99.90;;;;;;5033331;28;20175;-73
2022/04/06 07:26:29;;;;;;;0.80;0.70;;;12.40;99.90;;;;;;5032975;28;20604;-71
2022/04/06 07:28:55;;;;;;;1.57;1.47;;;12.40;99.90;;;;;;5033152;28;20651;-73
2022/04/06 07:31:20;;;;;;;2.00;0.70;;;12.50;99.90;;;;;;5033105;28;20406;-73
2022/04/06 07:33:46;;;;;;;0.70;0.60;;;12.50;99.90;;;;;;5033657;28;20255;-72
2022/04/06 07:36:13;;;;;;;0.70;0.50;;;12.50;99.90;;;;;;5035287;28;20191;-72
2022/04/06 07:38:39;;;;;;;0.97;0.60;;;12.50;99.90;;;;;;5036440;28;20641;-71
2022/04/06 07:41:05;;;;;;;0.70;0.50;;;12.60;99.90;;;;;;5036549;28;20406;-71
2022/04/06 07:43:30;;;;;;;1.23;0.70;;;12.60;99.90;;;;;;5035590;28;20413;-72
2022/04/06 07:45:56;;;;;;;0.70;0.50;;;12.70;99.90;;;;;;5036040;28;20464;-71
2022/04/06 07:48:25;;;;;;;0.90;0.80;;;12.80;99.90;;;;;;5036329;28;20676;-72
2022/04/06 07:50:51;;;;;;;2.90;0.70;;;12.80;99.90;;;;;;5035635;28;20645;-72
2022/04/06 07:53:17;;;;;;;0.77;0.57;;;12.90;99.90;;;;;;5034823;28;20433;-71
2022/04/06 07:55:44;;;;;;;0.70;0.60;;;13.00;99.90;;;;;;5035941;28;20441;-72
2022/04/06 07:58:10;;;;;;;0.80;0.60;;;13.10;99.90;;;;;;5036231;28;20398;-71
2022/04/06 08:00:35;;;;;;;1.00;0.83;;;13.20;99.90;;;;;;5036147;28;20405;-71
2022/04/06 08:03:01;;;;;;;0.70;0.50;;;13.20;99.90;;;;;;5034907;28;20206;-72
2022/04/06 08:05:27;;;;;;;0.77;0.57;;;13.20;99.90;;;;;;5034610;28;20195;-71
2022/04/06 08:07:53;;;;;;;0.70;0.50;;;13.20;99.90;;;;;;5036181;28;20590;-71
2022/04/06 08:10:19;;;;;;;0.73;0.57;;;13.10;99.90;;;;;;5036303;28;20213;-72
2022/04/06 08:12:47;;;;;;;0.70;0.50;;;13.10;99.90;;;;;;5036164;28;20930;-71
2022/04/06 08:15:14;;;;;;;0.70;0.50;;;13.10;99.90;;;;;;5035973;28;20414;-73
2022/04/06 08:17:45;;;;;;;0.70;0.50;;;13.10;99.90;;;;;;5034988;28;21018;-71
2022/04/06 08:20:12;;;;;;;0.70;0.50;;;13.10;99.90;;;;;;5035990;28;20399;-71
2022/04/06 08:22:38;;;;;;;0.80;0.70;;;13.20;99.90;;;;;;5036364;28;20403;-71
2022/04/06 08:25:11;;;;;;;0.70;0.50;;;13.30;99.90;;;;;;5034185;28;20410;-71
2022/04/06 08:27:40;;;;;;;0.70;0.57;;;13.30;99.90;;;;;;5036066;28;20441;-71
2022/04/06 08:30:07;;;;;;;0.70;0.50;;;13.30;99.90;;;;;;5034713;28;20402;-71
2022/04/06 08:32:33;;;;;;;0.70;0.50;;;13.20;99.90;;;;;;5035545;28;20395;-72
2022/04/06 08:34:59;;;;;;;0.90;0.77;;;13.10;99.90;;;;;;5035257;28;20406;-71
2022/04/06 08:37:38;;;;;;;0.70;0.50;;;13.10;99.90;;;;;;5035607;28;20410;-71
2022/04/06 08:40:06;;;;;;;0.80;0.60;;;13.00;99.90;;;;;;5035440;28;20398;-71
2022/04/06 08:42:41;;;;;;;0.70;0.50;;;12.90;99.90;;;;;;5033939;28;20416;-72
2022/04/06 08:45:08;;;;;;;0.70;0.60;;;12.80;99.90;;;;;;5033993;28;20422;-71
2022/04/06 08:47:34;;;;;;;0.70;0.50;;;12.80;99.90;;;;;;5034149;28;20462;-74
2022/04/06 08:50:04;;;;;;;0.70;0.50;;;12.70;99.90;;;;;;5035240;28;20896;-72
2022/04/06 08:52:34;;;;;;;0.70;0.50;;;12.70;99.90;;;;;;5035058;28;20410;-71
2022/04/06 08:54:59;;;;;;;0.80;0.60;;;12.70;99.90;;;;;;5035270;28;20477;-72
2022/04/06 08:57:27;;;;;;;0.80;0.60;;;12.70;99.90;;;;;;5035272;28;20920;-70
2022/04/06 08:59:52;;;;;;;0.80;0.77;;;12.60;99.90;;;;;;5034864;28;20164;-71
2022/04/06 09:02:21;;;;;;;0.70;0.50;;;12.60;99.90;;;;;;5035109;28;20410;-72
2022/04/06 09:04:54;;;;;;;1.67;1.23;;;12.70;99.90;;;;;;5034836;28;20172;-71
2022/04/06 09:07:21;;;;;;;0.70;0.60;;;12.70;99.90;;;;;;5034776;28;20492;-71
2022/04/06 09:09:51;;;;;;;0.70;0.50;;;12.80;99.90;;;;;;5034977;28;20480;-72
2022/04/06 09:12:19;;;;;;;0.70;0.60;;;12.90;99.90;;;;;;5034754;28;20434;-72
2022/04/06 09:14:44;;;;;;;0.70;0.50;;;13.00;99.90;;;;;;5033954;28;20411;-71
2022/04/06 09:17:10;;;;;;;1.03;0.73;;;13.10;99.90;;;;;;5033435;28;20442;-71
2022/04/06 09:19:37;;;;;;;0.70;0.50;;;13.30;99.90;;;;;;5034843;28;20294;-72
2022/04/06 09:22:06;;;;;;;0.70;0.57;;;13.60;99.90;;;;;;5035116;28;20561;-71
2022/04/06 09:24:31;;;;;;;0.70;0.50;;;14.00;99.90;;;;;;5034643;28;20411;-71
2022/04/06 09:27:01;;;;;;;3.90;0.80;;;14.30;99.90;;;;;;5034376;28;20580;-72
2022/04/06 09:29:27;;;;;;;3.33;0.70;;;14.80;99.90;;;;;;5034648;28;20584;-73
2022/04/06 09:31:53;;;;;;;0.70;0.50;;;15.30;99.90;;;;;;5034543;28;20414;-71
2022/04/06 09:34:27;;;;;;;0.80;0.50;;;15.90;99.90;;;;;;5034538;28;20629;-72
2022/04/06 09:36:58;;;;;;;0.80;0.60;;;16.50;99.90;;;;;;5033894;28;20434;-71
2022/04/06 09:39:43;;;;;;;0.80;0.60;;;17.00;99.90;;;;;;5034973;28;20497;-71
2022/04/06 09:42:17;;;;;;;0.77;0.50;;;17.30;99.90;;;;;;5035099;28;20964;-72
2022/04/06 09:47:58;;;;;;;0.80;0.70;;;17.80;96.70;;;;;;5034581;28;20406;-71
2022/04/06 09:50:29;;;;;;;0.80;0.50;;;18.40;95.40;;;;;;5034458;28;21006;-70
2022/04/06 09:53:01;;;;;;;0.80;0.60;;;18.90;94.40;;;;;;5034524;28;20421;-70
2022/04/06 09:55:27;;;;;;;1.00;0.60;;;19.40;92.00;;;;;;5034197;28;20422;-71
2022/04/06 09:57:55;;;;;;;0.80;0.50;;;19.80;90.60;;;;;;5033916;28;20402;-71
2022/04/06 10:00:26;;;;;;;3.77;3.07;;;20.50;90.00;;;;;;5033761;28;20648;-72
2022/04/06 10:03:05;;;;;;;0.80;0.50;;;21.50;82.30;;;;;;5033503;28;20403;-71
2022/04/06 10:05:33;;;;;;;4.40;1.07;;;21.90;76.60;;;;;;5033082;28;20475;-71
2022/04/06 10:08:06;;;;;;;0.80;0.70;;;22.70;70.90;;;;;;5033311;28;20890;-71
2022/04/06 10:10:32;;;;;;;0.80;0.70;;;23.50;67.60;;;;;;5033127;28;20409;-71
2022/04/06 10:12:58;;;;;;;0.80;0.50;;;24.10;64.30;;;;;;5033144;28;20772;-71
2022/04/06 10:15:27;;;;;;;0.80;0.50;;;24.80;62.10;;;;;;5031334;28;20935;-72
2022/04/06 10:17:53;;;;;;;0.80;0.60;;;25.50;60.70;;;;;;5032960;28;20406;-72
2022/04/06 10:20:49;;;;;;;0.80;0.60;;;25.90;58.00;;;;;;5033140;28;20406;-72
2022/04/06 10:23:39;;;;;;;0.80;0.50;;;25.50;55.00;;;;;;5033298;28;20582;-71
2022/04/06 10:26:23;;;;;;;1.00;0.60;;;24.70;53.60;;;;;;5032458;28;20485;-70
2022/04/06 10:28:51;;;;;;;1.03;0.60;;;24.30;54.60;;;;;;5033116;28;20406;-72
2022/04/06 10:31:19;;;;;;;0.80;0.67;;;24.20;55.50;;;;;;5033171;28;20441;-72
2022/04/06 10:33:48;;;;;;;0.80;0.60;;;23.90;54.10;;;;;;5033307;28;20406;-71
2022/04/06 10:36:32;;;;;;;0.80;0.60;;;23.20;54.10;;;;;;5031290;28;20556;-72
2022/04/06 10:39:18;;;;;;;0.80;0.60;;;22.70;55.30;;;;;;5033592;28;20818;-71
2022/04/06 10:42:14;;;;;;;0.80;0.60;;;22.60;56.50;;;;;;5032769;28;20788;-71
2022/04/06 10:44:40;;;;;;;0.80;0.50;;;22.90;56.40;;;;;;5033025;28;20764;-71
2022/04/06 10:47:11;;;;;;;0.80;0.60;;;23.10;56.30;;;;;;5032382;28;20461;-71
2022/04/06 10:49:37;;;;;;;0.80;0.60;;;23.30;55.80;;;;;;5032784;28;20439;-72
2022/04/06 10:52:23;;;;;;;1.03;0.80;;;23.10;55.60;;;;;;5033094;28;20896;-71
2022/04/06 10:54:49;;;;;;;0.80;0.50;;;22.50;55.30;;;;;;5032545;28;20461;-71
2022/04/06 10:57:14;;;;;;;1.53;1.30;;;21.90;56.10;;;;;;5032519;28;20414;-71
2022/04/06 10:59:40;;;;;;;0.80;0.50;;;21.40;56.90;;;;;;5032504;28;20432;-71
2022/04/06 11:02:17;;;;;;;0.90;0.60;;;21.10;57.80;;;;;;5032918;28;20179;-71
2022/04/06 11:04:43;;;;;;;0.90;0.57;;;20.90;58.90;;;;;;5031341;28;20441;-71
2022/04/06 11:07:09;;;;;;;0.80;0.57;;;20.80;59.60;;;;;;5031738;28;20639;-71
2022/04/06 11:12:32;;;;;;;0.80;0.50;;;20.50;59.40;;;;;;5033164;28;20508;-71
2022/04/06 11:14:58;;;;;;;1.50;0.70;;;20.10;59.80;;;;;;5033022;28;20970;-71
2022/04/06 11:17:41;;;;;;;0.80;0.50;;;19.80;61.30;;;;;;5031437;28;20510;-71
2022/04/06 11:20:31;;;;;;;6.80;1.03;;;19.50;62.20;;;;;;5032752;28;20195;-71
2022/04/06 11:22:58;;;;;;;1.57;0.73;;;19.10;63.00;;;;;;5032270;28;20790;-71
2022/04/06 11:25:28;;;;;;;0.80;0.60;;;18.80;64.40;;;;;;5033184;28;20422;-71
2022/04/06 11:27:55;;;;;;;0.80;0.50;;;18.40;65.50;;;;;;5032856;28;20540;-71
2022/04/06 11:30:26;;;;;;;0.80;0.60;;;18.20;66.50;;;;;;5033346;28;20403;-69
2022/04/06 11:32:57;;;;;;;0.80;0.50;;;17.90;67.50;;;;;;5033037;28;20937;-72
2022/04/06 11:35:31;;;;;;;0.90;0.60;;;17.60;68.90;;;;;;5032661;28;20433;-70
2022/04/06 11:37:57;;;;;;;0.80;0.50;;;17.30;69.70;;;;;;5033527;28;20402;-71
2022/04/06 11:40:25;;;;;;;0.90;0.67;;;17.20;71.00;;;;;;5032142;28;20410;-71
2022/04/06 11:42:52;;;;;;;0.80;0.50;;;17.00;72.00;;;;;;5032062;28;20442;-72
2022/04/06 11:45:23;;;;;;;0.80;0.50;;;17.00;73.20;;;;;;5032609;28;20422;-71
2022/04/06 11:48:01;;;;;;;0.80;0.50;;;17.10;74.20;;;;;;5033402;28;20395;-71
2022/04/06 11:50:31;;;;;;;0.80;0.70;;;17.10;74.90;;;;;;5032885;28;20412;-72
2022/04/06 11:53:04;;;;;;;0.90;0.60;;;17.00;75.40;;;;;;5032803;28;20391;-72
2022/04/06 11:55:50;;;;;;;0.77;0.50;;;17.00;76.60;;;;;;5032856;28;20472;-71
2022/04/06 11:58:43;;;;;;;1.10;0.60;;;17.00;77.60;;;;;;5033779;28;20716;-70
2022/04/06 12:01:21;;;;;;;0.80;0.60;;;16.80;77.80;;;;;;5033867;28;20403;-71
2022/04/06 12:03:47;;;;;;;0.80;0.60;;;16.70;78.30;;;;;;5033705;28;20390;-71
2022/04/06 12:06:14;;;;;;;0.80;0.50;;;16.60;79.30;;;;;;5031072;28;20568;-70
2022/04/06 12:08:42;;;;;;;0.73;0.50;;;16.40;80.80;;;;;;5033730;28;20398;-70
2022/04/06 12:11:08;;;;;;;1.43;1.20;;;16.30;81.80;;;;;;5033268;28;20406;-70
2022/04/06 12:13:35;;;;;;;0.73;0.50;;;16.20;82.60;;;;;;5033719;28;20402;-71
2022/04/06 12:16:02;;;;;;;0.80;0.50;;;16.10;83.50;;;;;;5033481;28;20202;-71
2022/04/06 12:18:29;;;;;;;0.73;0.50;;;16.00;85.10;;;;;;5033650;28;20748;-71
2022/04/06 12:20:55;;;;;;;0.80;0.50;;;15.90;86.50;;;;;;5035758;28;20406;-71
2022/04/06 12:23:23;;;;;;;0.90;0.67;;;16.00;88.10;;;;;;5037787;28;20463;-71
2022/04/06 12:25:49;;;;;;;0.80;0.50;;;16.00;89.40;;;;;;5036357;28;20249;-71
2022/04/06 12:28:23;;;;;;;0.83;0.57;;;16.10;90.30;;;;;;5036748;28;20402;-70
2022/04/06 12:30:59;;;;;;;0.80;0.60;;;16.20;90.10;;;;;;5037694;28;20168;-70
2022/04/06 12:33:45;;;;;;;0.70;0.50;;;16.20;89.90;;;;;;5036235;28;20414;-71
2022/04/06 12:36:28;;;;;;;0.70;0.50;;;16.20;89.80;;;;;;5036771;28;20438;-71
2022/04/06 12:39:02;;;;;;;0.80;0.50;;;16.20;90.00;;;;;;5037035;28;20406;-71
2022/04/06 12:41:34;;;;;;;0.70;0.50;;;16.20;90.30;;;;;;5036312;28;20528;-71
2022/04/06 12:44:02;;;;;;;2.07;1.20;;;16.10;90.20;;;;;;5036474;28;20751;-71
2022/04/06 12:46:58;;;;;;;0.77;0.57;;;16.10;90.40;;;;;;5035968;28;20826;-71
2022/04/06 12:49:37;;;;;;;0.80;0.60;;;16.10;90.90;;;;;;5035167;28;20410;-71
2022/04/06 12:52:23;;;;;;;0.80;0.60;;;16.10;91.30;;;;;;5036570;28;20402;-71
2022/04/06 12:55:02;;;;;;;0.80;0.60;;;16.00;91.10;;;;;;5036241;28;20957;-71
2022/04/06 12:57:32;;;;;;;0.80;0.60;;;16.00;91.10;;;;;;5036500;28;20767;-70
2022/04/06 13:00:03;;;;;;;1.17;0.70;;;15.80;90.70;;;;;;5036559;28;20938;-70